createdAt,value
2022-12-31T00:00:08.774Z,15.26
2022-12-31T00:02:36.056Z,15.33
2022-12-31T00:05:03.379Z,15.26
2022-12-31T00:07:30.020Z,15.27
2022-12-31T00:09:56.570Z,15.26
2022-12-31T00:12:23.233Z,15.28
2022-12-31T00:14:49.733Z,15.28
2022-12-31T00:17:16.275Z,15.32
2022-12-31T00:19:42.817Z,15.25
2022-12-31T00:22:09.353Z,15.39
2022-12-31T00:24:35.900Z,15.21
2022-12-31T00:27:02.489Z,15.73
2022-12-31T00:29:29.045Z,15.16
2022-12-31T00:31:55.658Z,15.57
2022-12-31T00:34:22.322Z,15.47
2022-12-31T00:36:48.854Z,15.51
2022-12-31T00:39:15.457Z,15.46
2022-12-31T00:41:43.892Z,15.50
2022-12-31T00:44:14.342Z,15.35
2022-12-31T00:49:07.217Z,15.90
2022-12-31T00:51:33.847Z,15.83
2022-12-31T00:54:00.922Z,16.07
2022-12-31T00:56:30.836Z,15.88
2022-12-31T00:58:59.165Z,15.87
2022-12-31T01:01:32.049Z,15.48
2022-12-31T01:04:05.427Z,15.52
2022-12-31T01:06:32.211Z,15.97
2022-12-31T01:08:58.831Z,16.00
2022-12-31T01:11:29.146Z,15.90
2022-12-31T01:14:00.974Z,15.69
2022-12-31T01:16:33.563Z,15.87
2022-12-31T01:19:02.005Z,15.84
2022-12-31T01:21:29.838Z,15.89
2022-12-31T01:23:57.449Z,15.72
2022-12-31T01:26:24.009Z,16.09
2022-12-31T01:28:50.527Z,15.51
2022-12-31T01:31:19.479Z,15.91
2022-12-31T01:33:46.899Z,16.01
2022-12-31T01:36:26.264Z,16.04
2022-12-31T01:38:55.185Z,15.83
2022-12-31T01:41:25.089Z,15.74
2022-12-31T01:44:02.186Z,15.95
2022-12-31T01:46:33.921Z,15.88
2022-12-31T01:49:10.627Z,16.17
2022-12-31T01:51:39.159Z,16.11
2022-12-31T01:54:09.179Z,15.98
2022-12-31T01:56:37.791Z,16.51
2022-12-31T01:59:08.027Z,16.00
2022-12-31T02:01:37.111Z,16.06
2022-12-31T02:04:09.130Z,16.12
2022-12-31T02:06:58.617Z,16.13
2022-12-31T02:09:25.327Z,16.16
2022-12-31T02:11:51.847Z,16.50
2022-12-31T02:14:35.528Z,16.27
2022-12-31T02:17:11.359Z,16.43
2022-12-31T02:19:56.217Z,16.53
2022-12-31T02:22:44.247Z,16.42
2022-12-31T02:25:48.786Z,16.31
2022-12-31T02:28:27.503Z,16.46
2022-12-31T02:31:01.405Z,16.54
2022-12-31T02:33:42.543Z,16.41
2022-12-31T02:36:15.018Z,16.57
2022-12-31T02:38:44.674Z,16.49
2022-12-31T02:41:35.386Z,16.29
2022-12-31T02:44:02.502Z,16.69
2022-12-31T02:46:59.717Z,16.66
2022-12-31T02:49:38.521Z,16.70
2022-12-31T02:52:29.995Z,16.66
2022-12-31T02:55:15.787Z,16.98
2022-12-31T02:58:04.088Z,16.69
2022-12-31T03:00:51.680Z,16.90
2022-12-31T03:03:20.302Z,16.92
2022-12-31T03:05:48.947Z,16.58
2022-12-31T03:08:23.229Z,16.77
2022-12-31T03:10:49.915Z,16.68
2022-12-31T03:13:16.546Z,17.10
2022-12-31T03:15:43.090Z,16.63
2022-12-31T03:18:13.108Z,16.65
2022-12-31T03:21:07.203Z,16.77
2022-12-31T03:23:37.013Z,16.79
2022-12-31T03:26:11.231Z,16.59
2022-12-31T03:28:40.265Z,16.88
2022-12-31T03:31:06.977Z,16.65
2022-12-31T03:33:39.125Z,16.84
2022-12-31T03:36:12.779Z,16.79
2022-12-31T03:38:40.196Z,16.82
2022-12-31T03:41:06.700Z,16.67
2022-12-31T03:43:33.214Z,16.79
2022-12-31T03:46:01.417Z,16.66
2022-12-31T03:48:28.078Z,16.94
2022-12-31T03:50:54.820Z,17.04
2022-12-31T03:53:21.487Z,16.88
2022-12-31T03:55:52.178Z,16.86
2022-12-31T03:58:18.714Z,17.05
2022-12-31T04:00:45.252Z,16.90
2022-12-31T04:03:11.849Z,17.11
2022-12-31T04:05:38.430Z,17.28
2022-12-31T04:08:05.006Z,16.99
2022-12-31T04:10:31.507Z,17.07
2022-12-31T04:13:00.209Z,17.06
2022-12-31T04:15:26.722Z,17.26
2022-12-31T04:17:53.242Z,17.08
2022-12-31T04:20:19.767Z,17.20
2022-12-31T04:22:46.343Z,16.80
2022-12-31T04:25:12.957Z,16.83
2022-12-31T04:27:41.261Z,17.03
2022-12-31T04:30:08.227Z,17.18
2022-12-31T04:32:34.805Z,16.99
2022-12-31T04:35:01.543Z,17.07
2022-12-31T04:37:28.042Z,16.89
2022-12-31T04:39:55.443Z,17.23
2022-12-31T04:42:24.499Z,17.36
2022-12-31T04:44:51.006Z,17.27
2022-12-31T04:47:23.294Z,17.02
2022-12-31T04:49:50.243Z,17.37
2022-12-31T04:52:16.987Z,17.48
2022-12-31T04:54:43.521Z,17.38
2022-12-31T04:57:10.048Z,17.93
2022-12-31T04:59:36.661Z,17.89
2022-12-31T05:02:03.395Z,17.53
2022-12-31T05:04:29.993Z,17.52
2022-12-31T05:06:56.491Z,17.68
2022-12-31T05:09:24.105Z,17.41
2022-12-31T05:11:50.718Z,17.75
2022-12-31T05:14:17.833Z,17.46
2022-12-31T05:16:44.420Z,17.72
2022-12-31T05:19:10.973Z,17.48
2022-12-31T05:21:37.465Z,17.37
2022-12-31T05:24:04.430Z,17.94
2022-12-31T05:26:30.992Z,17.64
2022-12-31T05:29:00.220Z,17.57
2022-12-31T05:31:26.849Z,17.56
2022-12-31T05:33:53.634Z,17.88
2022-12-31T05:36:20.129Z,17.68
2022-12-31T05:38:46.627Z,17.69
2022-12-31T05:41:13.151Z,17.55
2022-12-31T05:43:39.688Z,17.83
2022-12-31T05:46:06.232Z,17.94
2022-12-31T05:48:32.768Z,17.76
2022-12-31T05:50:59.390Z,17.63
2022-12-31T05:53:25.913Z,17.46
2022-12-31T05:55:52.468Z,18.06
2022-12-31T05:58:19.038Z,17.78
2022-12-31T06:00:46.005Z,17.59
2022-12-31T06:03:12.658Z,17.93
2022-12-31T06:05:41.143Z,17.62
2022-12-31T06:08:07.609Z,18.08
2022-12-31T06:10:34.098Z,17.44
2022-12-31T06:13:00.658Z,17.76
2022-12-31T06:15:27.186Z,18.12
2022-12-31T06:17:53.746Z,18.06
2022-12-31T06:20:20.259Z,18.16
2022-12-31T06:22:46.817Z,18.14
2022-12-31T06:25:13.424Z,18.10
2022-12-31T06:27:39.990Z,18.12
2022-12-31T06:30:07.423Z,18.79
2022-12-31T06:32:34.936Z,18.09
2022-12-31T06:35:01.510Z,18.12
2022-12-31T06:37:28.202Z,18.13
2022-12-31T06:39:54.685Z,17.97
2022-12-31T06:42:21.240Z,18.06
2022-12-31T06:44:47.739Z,18.05
2022-12-31T06:47:14.283Z,17.94
2022-12-31T06:49:40.816Z,18.36
2022-12-31T06:52:07.421Z,18.29
2022-12-31T06:54:34.247Z,18.38
2022-12-31T06:57:00.981Z,18.04
2022-12-31T06:59:29.611Z,18.38
2022-12-31T07:02:04.403Z,18.17
2022-12-31T07:04:53.059Z,18.53
2022-12-31T07:07:46.160Z,18.13
2022-12-31T07:10:41.286Z,18.34
2022-12-31T07:13:28.217Z,18.48
2022-12-31T07:16:25.343Z,18.12
2022-12-31T07:19:06.646Z,18.12
2022-12-31T07:21:41.481Z,18.19
2022-12-31T07:24:09.925Z,18.27
2022-12-31T07:26:56.983Z,18.28
2022-12-31T07:29:42.393Z,18.42
2022-12-31T07:32:14.743Z,18.41
2022-12-31T07:35:01.508Z,18.44
2022-12-31T07:37:52.117Z,18.43
2022-12-31T07:40:30.638Z,18.46
2022-12-31T07:43:16.312Z,18.42
2022-12-31T07:45:58.056Z,18.20
2022-12-31T07:48:26.996Z,18.25
2022-12-31T07:50:55.427Z,18.27
2022-12-31T07:53:23.464Z,18.30
2022-12-31T07:55:59.767Z,18.19
2022-12-31T07:58:45.023Z,18.44
2022-12-31T08:01:15.873Z,18.20
2022-12-31T08:04:07.332Z,18.21
2022-12-31T08:06:46.338Z,18.15
2022-12-31T08:09:33.447Z,18.50
2022-12-31T08:12:01.721Z,18.20
2022-12-31T08:14:29.645Z,18.21
2022-12-31T08:16:57.606Z,18.16
2022-12-31T08:19:28.374Z,18.35
2022-12-31T08:22:07.910Z,18.14
2022-12-31T08:24:47.068Z,18.48
2022-12-31T08:27:44.542Z,18.08
2022-12-31T08:30:14.757Z,18.42
2022-12-31T08:33:00.027Z,18.11
2022-12-31T08:35:40.833Z,18.32
2022-12-31T08:38:25.827Z,18.17
2022-12-31T08:41:06.063Z,18.36
2022-12-31T08:43:37.243Z,18.31
2022-12-31T08:46:07.841Z,18.09
2022-12-31T08:48:42.907Z,18.17
2022-12-31T08:51:17.647Z,17.87
2022-12-31T08:53:44.515Z,18.50
2022-12-31T08:56:26.277Z,18.15
2022-12-31T08:59:07.837Z,18.06
2022-12-31T09:01:54.013Z,18.00
2022-12-31T09:04:48.406Z,18.22
2022-12-31T09:07:22.373Z,18.33
2022-12-31T09:10:07.437Z,18.17
2022-12-31T09:13:21.476Z,18.22
2022-12-31T09:16:02.484Z,18.20
2022-12-31T09:18:33.332Z,18.24
2022-12-31T09:21:00.367Z,18.20
2022-12-31T09:23:27.118Z,18.19
2022-12-31T09:26:17.637Z,18.27
2022-12-31T09:28:59.577Z,18.01
2022-12-31T09:31:41.265Z,18.44
2022-12-31T09:34:26.835Z,18.09
2022-12-31T09:37:01.916Z,18.38
2022-12-31T09:39:43.393Z,18.39
2022-12-31T09:42:41.151Z,18.49
2022-12-31T09:45:58.432Z,18.44
2022-12-31T09:48:56.375Z,18.52
2022-12-31T09:51:42.452Z,18.91
2022-12-31T09:54:32.043Z,19.07
2022-12-31T09:57:31.170Z,19.30
2022-12-31T10:00:21.665Z,19.33
2022-12-31T10:03:06.580Z,19.20
2022-12-31T10:06:00.606Z,19.32
2022-12-31T10:08:46.157Z,19.57
2022-12-31T10:11:19.502Z,20.23
2022-12-31T10:14:28.223Z,20.17
2022-12-31T10:17:06.930Z,20.29
2022-12-31T10:19:51.568Z,20.24
2022-12-31T10:22:38.126Z,20.85
2022-12-31T10:26:01.045Z,20.17
2022-12-31T10:29:08.799Z,19.99
2022-12-31T10:32:00.195Z,20.50
2022-12-31T10:34:32.180Z,20.43
2022-12-31T10:37:17.103Z,20.06
2022-12-31T10:40:10.801Z,20.07
2022-12-31T10:42:50.332Z,20.16
2022-12-31T10:45:38.315Z,20.65
2022-12-31T10:48:13.564Z,20.91
2022-12-31T10:50:59.495Z,21.42
2022-12-31T10:53:45.909Z,21.16
2022-12-31T10:56:56.901Z,21.21
2022-12-31T10:59:50.975Z,21.18
2022-12-31T11:02:29.538Z,20.85
2022-12-31T11:05:12.563Z,21.04
2022-12-31T11:08:00.658Z,21.20
2022-12-31T11:11:00.187Z,20.66
2022-12-31T11:13:36.349Z,20.84
2022-12-31T11:16:42.748Z,20.38
2022-12-31T11:19:15.004Z,19.83
2022-12-31T11:21:51.522Z,19.90
2022-12-31T11:24:35.441Z,19.59
2022-12-31T11:27:22.044Z,20.17
2022-12-31T11:29:54.262Z,19.78
2022-12-31T11:32:35.979Z,20.50
2022-12-31T11:35:15.822Z,20.68
2022-12-31T11:37:47.823Z,21.11
2022-12-31T11:40:37.775Z,20.79
2022-12-31T11:43:21.183Z,21.06
2022-12-31T11:45:53.987Z,20.17
2022-12-31T11:48:39.994Z,20.52
2022-12-31T11:51:34.078Z,20.83
2022-12-31T11:54:38.104Z,20.69
2022-12-31T11:57:16.249Z,20.00
2022-12-31T11:59:42.983Z,20.18
2022-12-31T12:02:26.651Z,20.68
2022-12-31T12:04:55.803Z,20.70
2022-12-31T12:07:24.040Z,21.04
2022-12-31T12:09:54.386Z,21.53
2022-12-31T12:12:21.312Z,21.45
2022-12-31T12:14:54.571Z,22.05
2022-12-31T12:17:32.319Z,21.72
2022-12-31T12:20:14.493Z,21.03
2022-12-31T12:22:49.835Z,21.45
2022-12-31T12:25:22.198Z,21.48
2022-12-31T12:27:48.984Z,22.07
2022-12-31T12:30:22.259Z,22.39
2022-12-31T12:33:00.737Z,21.48
2022-12-31T12:35:33.354Z,22.15
2022-12-31T12:38:08.298Z,21.39
2022-12-31T12:40:35.383Z,20.77
2022-12-31T12:43:02.680Z,21.22
2022-12-31T12:45:45.134Z,21.19
2022-12-31T12:48:36.870Z,21.70
2022-12-31T12:51:13.451Z,21.48
2022-12-31T12:53:58.569Z,21.20
2022-12-31T12:56:25.062Z,21.26
2022-12-31T12:58:51.660Z,21.92
2022-12-31T13:01:24.354Z,21.59
2022-12-31T13:04:23.811Z,21.93
2022-12-31T13:06:49.486Z,21.93
2022-12-31T13:09:34.493Z,21.92
2022-12-31T13:12:07.171Z,21.87
2022-12-31T13:14:34.062Z,21.85
2022-12-31T13:17:04.075Z,21.53
2022-12-31T13:19:33.400Z,22.12
2022-12-31T13:22:04.833Z,21.77
2022-12-31T13:24:39.592Z,22.25
2022-12-31T13:27:08.766Z,22.11
2022-12-31T13:29:35.919Z,21.78
2022-12-31T13:32:04.636Z,21.99
2022-12-31T13:34:33.580Z,22.11
2022-12-31T13:37:03.370Z,21.05
2022-12-31T13:39:31.710Z,21.43
2022-12-31T13:42:03.731Z,21.87
2022-12-31T13:44:36.315Z,21.97
2022-12-31T13:47:05.784Z,22.25
2022-12-31T13:49:36.177Z,22.17
2022-12-31T13:52:06.969Z,22.70
2022-12-31T13:54:53.671Z,21.90
2022-12-31T13:57:42.182Z,21.59
2022-12-31T14:00:30.179Z,20.95
2022-12-31T14:03:01.384Z,20.94
2022-12-31T14:05:34.204Z,21.26
2022-12-31T14:08:01.787Z,20.83
2022-12-31T14:10:34.304Z,20.66
2022-12-31T14:13:16.039Z,21.08
2022-12-31T14:15:49.764Z,20.50
2022-12-31T14:18:23.450Z,20.43
2022-12-31T14:21:06.575Z,20.76
2022-12-31T14:23:38.963Z,20.62
2022-12-31T14:26:05.389Z,20.52
2022-12-31T14:28:52.108Z,20.67
2022-12-31T14:31:29.369Z,20.48
2022-12-31T14:34:08.190Z,20.61
2022-12-31T14:36:37.544Z,20.24
2022-12-31T14:39:22.711Z,20.20
2022-12-31T14:42:03.505Z,20.31
2022-12-31T14:44:38.996Z,20.76
2022-12-31T14:47:05.516Z,20.16
2022-12-31T14:49:49.978Z,20.66
2022-12-31T14:52:16.418Z,20.40
2022-12-31T14:54:42.839Z,20.29
2022-12-31T14:57:10.294Z,20.65
2022-12-31T14:59:40.430Z,20.32
2022-12-31T15:02:25.590Z,20.30
2022-12-31T15:05:02.980Z,20.38
2022-12-31T15:07:40.636Z,20.19
2022-12-31T15:10:14.870Z,20.06
2022-12-31T15:12:56.474Z,20.05
2022-12-31T15:15:25.778Z,19.78
2022-12-31T15:17:55.218Z,20.20
2022-12-31T15:20:40.646Z,19.83
2022-12-31T15:23:23.887Z,20.26
2022-12-31T15:25:54.109Z,19.83
2022-12-31T15:28:26.579Z,19.86
2022-12-31T15:30:54.524Z,19.79
2022-12-31T15:33:27.219Z,19.86
2022-12-31T15:35:54.736Z,19.81
2022-12-31T15:38:36.936Z,19.90
2022-12-31T15:41:18.306Z,19.93
2022-12-31T15:44:08.637Z,19.84
2022-12-31T15:46:38.123Z,19.55
2022-12-31T15:49:15.442Z,19.20
2022-12-31T15:51:47.908Z,19.60
2022-12-31T15:54:22.887Z,19.52
2022-12-31T15:56:49.863Z,19.68
2022-12-31T15:59:17.973Z,19.86
2022-12-31T16:01:45.312Z,19.67
2022-12-31T16:04:17.248Z,19.34
2022-12-31T16:06:48.898Z,19.33
2022-12-31T16:09:24.630Z,19.54
2022-12-31T16:11:51.948Z,19.66
2022-12-31T16:14:22.483Z,19.28
2022-12-31T16:16:59.301Z,19.36
2022-12-31T16:19:31.000Z,19.23
2022-12-31T16:21:58.180Z,19.38
2022-12-31T16:24:32.243Z,19.34
2022-12-31T16:27:00.622Z,19.59
2022-12-31T16:29:27.202Z,19.21
2022-12-31T16:31:54.331Z,19.44
2022-12-31T16:34:22.515Z,19.32
2022-12-31T16:36:59.163Z,19.46
2022-12-31T16:39:30.174Z,19.57
2022-12-31T16:42:15.575Z,19.21
2022-12-31T16:44:42.037Z,19.27
2022-12-31T16:47:09.743Z,19.38
2022-12-31T16:49:38.356Z,19.40
2022-12-31T16:52:07.573Z,19.27
2022-12-31T16:54:35.400Z,19.29
2022-12-31T16:57:02.005Z,19.08
2022-12-31T16:59:35.430Z,19.33
2022-12-31T17:02:05.068Z,19.01
2022-12-31T17:04:31.679Z,18.98
2022-12-31T17:07:16.999Z,19.01
2022-12-31T17:09:43.432Z,19.00
2022-12-31T17:12:16.534Z,19.11
2022-12-31T17:14:50.235Z,18.94
2022-12-31T17:17:22.901Z,18.88
2022-12-31T17:19:50.496Z,18.79
2022-12-31T17:22:16.886Z,18.86
2022-12-31T17:24:43.415Z,19.14
2022-12-31T17:27:10.270Z,18.99
2022-12-31T17:29:36.761Z,19.10
2022-12-31T17:32:07.216Z,19.31
2022-12-31T17:34:53.934Z,18.80
2022-12-31T17:37:23.320Z,19.12
2022-12-31T17:39:50.507Z,19.03
2022-12-31T17:42:23.374Z,18.99
2022-12-31T17:44:50.118Z,18.91
2022-12-31T17:47:16.592Z,18.77
2022-12-31T17:49:44.753Z,18.92
2022-12-31T17:52:15.001Z,18.71
2022-12-31T17:54:41.878Z,19.08
2022-12-31T17:57:19.852Z,18.73
2022-12-31T17:59:46.322Z,19.33
2022-12-31T18:02:13.129Z,18.94
2022-12-31T18:04:39.682Z,18.94
2022-12-31T18:07:06.092Z,18.81
2022-12-31T18:09:32.608Z,18.77
2022-12-31T18:12:01.941Z,18.97
2022-12-31T18:14:29.895Z,19.00
2022-12-31T18:16:56.313Z,19.11
2022-12-31T18:20:03.828Z,19.01
2022-12-31T18:22:13.975Z,18.95
2022-12-31T18:24:40.407Z,18.67
2022-12-31T18:27:14.059Z,18.79
2022-12-31T18:29:40.640Z,18.73
2022-12-31T18:32:09.586Z,18.84
2022-12-31T18:34:35.999Z,19.04
2022-12-31T18:37:02.535Z,18.86
2022-12-31T18:39:28.977Z,18.50
2022-12-31T18:41:55.426Z,18.90
2022-12-31T18:44:21.875Z,18.60
2022-12-31T18:46:48.343Z,18.75
2022-12-31T18:49:14.714Z,18.85
2022-12-31T18:51:41.070Z,18.53
2022-12-31T18:54:10.230Z,18.60
2022-12-31T18:56:38.569Z,18.35
2022-12-31T18:59:09.217Z,18.33
2022-12-31T19:01:37.774Z,18.52
2022-12-31T19:04:10.565Z,18.37
2022-12-31T19:06:37.032Z,18.29
2022-12-31T19:09:06.352Z,18.70
2022-12-31T19:11:44.801Z,18.62
2022-12-31T19:14:24.507Z,18.47
2022-12-31T19:16:51.826Z,18.94
2022-12-31T19:19:18.378Z,18.69
2022-12-31T19:21:45.609Z,18.83
2022-12-31T19:24:20.419Z,18.57
2022-12-31T19:26:46.811Z,18.68
2022-12-31T19:29:17.493Z,18.77
2022-12-31T19:31:44.062Z,18.87
2022-12-31T19:34:10.744Z,18.44
2022-12-31T19:36:43.711Z,18.54
2022-12-31T19:39:14.840Z,18.59
2022-12-31T19:41:42.111Z,18.30
2022-12-31T19:44:18.590Z,18.42
2022-12-31T19:46:45.838Z,18.37
2022-12-31T19:49:12.949Z,18.69
2022-12-31T19:51:39.726Z,18.85
2022-12-31T19:54:06.303Z,18.62
2022-12-31T19:56:32.740Z,18.63
2022-12-31T19:59:03.299Z,18.66
2022-12-31T20:01:29.790Z,18.80
2022-12-31T20:03:56.543Z,18.82
2022-12-31T20:06:22.957Z,18.37
2022-12-31T20:08:49.391Z,18.68
2022-12-31T20:11:20.495Z,18.66
2022-12-31T20:13:47.593Z,18.61
2022-12-31T20:16:18.434Z,18.56
2022-12-31T20:18:45.848Z,18.40
2022-12-31T20:21:19.824Z,18.14
2022-12-31T20:23:47.117Z,18.72
2022-12-31T20:26:13.594Z,18.73
2022-12-31T20:28:40.073Z,18.12
2022-12-31T20:31:11.104Z,18.43
2022-12-31T20:33:37.602Z,18.01
2022-12-31T20:36:04.530Z,18.61
2022-12-31T20:38:31.066Z,18.39
2022-12-31T20:41:27.300Z,18.29
2022-12-31T20:43:53.743Z,18.10
2022-12-31T20:46:24.941Z,17.91
2022-12-31T20:48:52.653Z,17.93
2022-12-31T20:51:19.802Z,17.98
2022-12-31T20:53:50.293Z,18.14
2022-12-31T20:56:16.869Z,17.83
2022-12-31T20:58:43.345Z,17.76
2022-12-31T21:01:10.473Z,17.90
2022-12-31T21:04:04.462Z,17.97
2022-12-31T21:06:24.943Z,17.74
2022-12-31T21:08:51.432Z,17.84
2022-12-31T21:11:36.281Z,17.96
2022-12-31T21:14:02.683Z,17.84
2022-12-31T21:16:29.155Z,17.76
2022-12-31T21:18:55.731Z,17.74
2022-12-31T21:21:22.727Z,17.52
2022-12-31T21:23:49.261Z,17.92
2022-12-31T21:26:15.748Z,18.22
2022-12-31T21:28:42.290Z,18.03
2022-12-31T21:31:09.113Z,17.92
2022-12-31T21:33:35.587Z,17.89
2022-12-31T21:36:04.677Z,17.74
2022-12-31T21:38:31.631Z,17.79
2022-12-31T21:41:02.054Z,17.77
2022-12-31T21:43:28.547Z,17.66
2022-12-31T21:46:01.930Z,17.69
2022-12-31T21:48:28.352Z,18.02
2022-12-31T21:50:56.221Z,17.79
2022-12-31T21:53:26.154Z,17.80
2022-12-31T21:56:15.958Z,17.54
2022-12-31T21:58:46.179Z,17.46
2022-12-31T22:01:34.555Z,17.70
2022-12-31T22:04:01.065Z,17.45
2022-12-31T22:06:27.529Z,17.54
2022-12-31T22:08:54.939Z,17.55
2022-12-31T22:11:22.725Z,17.42
2022-12-31T22:13:49.520Z,17.57
2022-12-31T22:16:17.137Z,17.41
2022-12-31T22:18:44.192Z,17.67
2022-12-31T22:21:18.179Z,17.65
2022-12-31T22:23:46.938Z,17.59
2022-12-31T22:26:14.498Z,17.67
2022-12-31T22:28:41.913Z,17.46
2022-12-31T22:31:15.739Z,17.27
2022-12-31T22:33:42.718Z,17.21
2022-12-31T22:36:13.855Z,17.43
2022-12-31T22:38:40.549Z,17.45
2022-12-31T22:41:08.528Z,17.26
2022-12-31T22:43:36.208Z,17.62
2022-12-31T22:46:06.448Z,17.44
2022-12-31T22:48:32.917Z,17.54
2022-12-31T22:50:59.348Z,17.74
2022-12-31T22:53:25.766Z,17.53
2022-12-31T22:55:55.503Z,17.31
2022-12-31T22:58:25.232Z,17.38
2022-12-31T23:00:51.750Z,17.12
2022-12-31T23:03:18.486Z,17.38
2022-12-31T23:05:47.222Z,17.62
2022-12-31T23:08:22.301Z,17.37
2022-12-31T23:11:06.012Z,17.46
2022-12-31T23:13:55.745Z,17.35
2022-12-31T23:16:41.524Z,17.31
2022-12-31T23:19:26.772Z,17.21
2022-12-31T23:22:11.930Z,16.97
2022-12-31T23:24:38.660Z,16.65
2022-12-31T23:27:05.655Z,16.68
2022-12-31T23:29:32.127Z,16.88
2022-12-31T23:31:58.581Z,16.89
2022-12-31T23:34:24.993Z,16.77
2022-12-31T23:36:51.422Z,16.60
2022-12-31T23:39:17.929Z,16.77
2022-12-31T23:41:44.492Z,16.63
2022-12-31T23:44:12.169Z,16.87
2022-12-31T23:46:39.291Z,16.88
2022-12-31T23:49:05.913Z,17.09
2022-12-31T23:51:32.551Z,16.92
2022-12-31T23:53:58.996Z,16.93
2022-12-31T23:56:25.433Z,16.88
2022-12-31T23:58:58.550Z,17.25
